Time;durP1;ratioP1;P1;durP2;ratioP2;P2;SDS_P1;SDS_P2;PMS_P1;PMS_P2;Temp;Humidity;BMP_temperature;BMP_pressure;BME280_temperature;BME280_humidity;BME280_pressure;Samples;Min_cycle;Max_cycle;Signal;HPM_P1;HPM_P2
2022/04/27 00:01:31;;;;;;;15.60;12.53;;;11.00;99.90;;;;;;4975956;28;20208;-67
2022/04/27 00:03:58;;;;;;;16.20;12.40;;;11.00;99.90;;;;;;4957994;28;20220;-67
2022/04/27 00:06:24;;;;;;;16.60;12.63;;;11.00;99.90;;;;;;4966223;28;20264;-66
2022/04/27 00:08:51;;;;;;;16.83;11.60;;;11.00;99.90;;;;;;4973688;28;20235;-68
2022/04/27 00:11:19;;;;;;;15.97;12.17;;;11.10;99.90;;;;;;4956405;28;20742;-66
2022/04/27 00:13:46;;;;;;;15.47;12.10;;;11.10;99.90;;;;;;4956095;28;20215;-67
2022/04/27 00:16:13;;;;;;;17.10;13.03;;;11.10;99.90;;;;;;4961919;28;20673;-66
2022/04/27 00:18:40;;;;;;;19.00;13.20;;;11.20;99.90;;;;;;4963213;28;20646;-67
2022/04/27 00:21:07;;;;;;;15.90;13.37;;;11.10;99.90;;;;;;4961919;28;20291;-68
2022/04/27 00:23:34;;;;;;;16.07;13.30;;;11.20;99.90;;;;;;4961198;28;20213;-67
2022/04/27 00:26:01;;;;;;;17.57;12.93;;;11.10;99.90;;;;;;4956596;28;20304;-67
2022/04/27 00:28:29;;;;;;;16.37;12.93;;;11.20;99.90;;;;;;4961081;28;20224;-69
2022/04/27 00:30:56;;;;;;;16.93;13.30;;;11.10;99.90;;;;;;4961790;28;20566;-67
2022/04/27 00:33:23;;;;;;;17.60;13.03;;;11.10;99.90;;;;;;4965252;28;20304;-66
2022/04/27 00:35:51;;;;;;;18.67;13.57;;;11.10;99.90;;;;;;4962216;28;20295;-67
2022/04/27 00:38:17;;;;;;;16.90;13.03;;;11.00;99.90;;;;;;4968115;28;20249;-67
2022/04/27 00:40:45;;;;;;;18.27;13.80;;;11.10;99.90;;;;;;4966032;28;20684;-67
2022/04/27 00:43:14;;;;;;;18.50;13.47;;;11.00;99.90;;;;;;4962822;28;20583;-67
2022/04/27 00:45:45;;;;;;;18.90;13.50;;;10.90;99.90;;;;;;4963985;28;20213;-67
2022/04/27 00:48:12;;;;;;;18.17;13.37;;;10.90;99.90;;;;;;4965613;28;20612;-67
2022/04/27 00:50:39;;;;;;;17.00;13.40;;;10.90;99.90;;;;;;4965522;28;20299;-67
2022/04/27 00:53:06;;;;;;;18.57;14.73;;;10.80;99.90;;;;;;4966182;28;20300;-66
2022/04/27 00:55:33;;;;;;;21.00;14.83;;;10.80;99.90;;;;;;4972504;28;20626;-66
2022/04/27 00:58:00;;;;;;;23.47;14.57;;;10.80;99.90;;;;;;4965319;28;20209;-66
2022/04/27 01:00:27;;;;;;;19.07;13.50;;;10.70;99.90;;;;;;4961776;28;20269;-66
2022/04/27 01:02:56;;;;;;;18.80;13.03;;;10.60;99.90;;;;;;4959351;28;20221;-66
2022/04/27 01:05:23;;;;;;;18.17;14.10;;;10.60;99.90;;;;;;4967867;28;20684;-67
2022/04/27 01:07:50;;;;;;;21.83;14.87;;;10.50;99.90;;;;;;4961252;28;20264;-67
2022/04/27 01:10:17;;;;;;;20.80;14.87;;;10.50;99.90;;;;;;4962248;28;20209;-68
2022/04/27 01:12:44;;;;;;;21.67;15.50;;;10.50;99.90;;;;;;4958618;28;20210;-66
2022/04/27 01:15:13;;;;;;;17.60;14.53;;;10.50;99.90;;;;;;4967012;28;20304;-68
2022/04/27 01:17:40;;;;;;;23.03;15.70;;;10.40;99.90;;;;;;4964334;28;20217;-68
2022/04/27 01:20:10;;;;;;;22.20;14.73;;;10.40;99.90;;;;;;4969770;28;20220;-67
2022/04/27 01:22:38;;;;;;;19.93;14.97;;;10.30;99.90;;;;;;4957632;28;20315;-66
2022/04/27 01:25:06;;;;;;;21.30;15.30;;;10.30;99.90;;;;;;4970677;28;20241;-67
2022/04/27 01:27:33;;;;;;;21.07;15.57;;;10.20;99.90;;;;;;4966816;28;20209;-67
2022/04/27 01:30:00;;;;;;;21.77;16.47;;;10.20;99.90;;;;;;4958463;28;20211;-65
2022/04/27 01:32:27;;;;;;;19.47;15.30;;;10.20;99.90;;;;;;4958124;28;20301;-67
2022/04/27 01:34:54;;;;;;;23.00;14.90;;;10.20;99.90;;;;;;4958145;28;20296;-66
2022/04/27 01:40:08;;;;;;;18.23;14.50;;;10.20;99.90;;;;;;4959050;28;20243;-67
2022/04/27 01:42:35;;;;;;;23.60;16.20;;;10.20;99.90;;;;;;4959228;28;20642;-67
2022/04/27 01:45:02;;;;;;;21.53;15.60;;;10.20;99.90;;;;;;4958094;28;20221;-67
2022/04/27 01:47:29;;;;;;;22.33;14.60;;;10.20;99.90;;;;;;4959901;28;20209;-66
2022/04/27 01:49:56;;;;;;;21.50;15.43;;;10.20;99.90;;;;;;4962544;28;20229;-66
2022/04/27 01:55:09;;;;;;;19.53;15.00;;;10.20;99.90;;;;;;4957498;28;20220;-66
2022/04/27 01:57:35;;;;;;;21.27;15.63;;;10.20;99.90;;;;;;4960021;28;20208;-67
2022/04/27 02:00:03;;;;;;;20.50;15.27;;;10.20;99.90;;;;;;4963055;28;20584;-67
2022/04/27 02:02:30;;;;;;;19.90;15.17;;;10.10;99.90;;;;;;4967278;28;20261;-66
2022/04/27 02:04:56;;;;;;;24.17;15.90;;;10.20;99.90;;;;;;4957981;28;20289;-66
2022/04/27 02:07:23;;;;;;;18.70;14.90;;;10.10;99.90;;;;;;4962966;28;20351;-66
2022/04/27 02:09:50;;;;;;;20.63;16.17;;;10.10;99.90;;;;;;4957841;28;20225;-67
2022/04/27 02:12:18;;;;;;;25.37;16.20;;;10.00;99.90;;;;;;4964549;28;20213;-68
2022/04/27 02:14:45;;;;;;;20.10;14.73;;;10.00;99.90;;;;;;4958748;28;20304;-67
2022/04/27 02:17:12;;;;;;;21.00;15.00;;;9.90;99.90;;;;;;4972631;28;20299;-67
2022/04/27 02:19:39;;;;;;;21.30;15.57;;;9.90;99.90;;;;;;4971860;28;20264;-67
2022/04/27 02:22:06;;;;;;;18.17;15.27;;;9.90;99.90;;;;;;4965097;28;20312;-66
2022/04/27 02:24:33;;;;;;;20.13;14.77;;;9.90;99.90;;;;;;4958436;28;20621;-67
2022/04/27 02:27:00;;;;;;;20.80;15.97;;;9.90;99.90;;;;;;4957520;28;20245;-67
2022/04/27 02:29:29;;;;;;;22.50;15.93;;;9.80;99.90;;;;;;4957150;28;20225;-67
2022/04/27 02:31:55;;;;;;;19.90;15.77;;;9.80;99.90;;;;;;4957601;28;20224;-67
2022/04/27 02:34:22;;;;;;;20.03;15.13;;;9.80;99.90;;;;;;4958621;28;20276;-66
2022/04/27 02:36:49;;;;;;;20.87;15.70;;;9.70;99.90;;;;;;4956259;28;20209;-67
2022/04/27 02:39:16;;;;;;;21.07;14.70;;;9.70;99.90;;;;;;4961848;28;20221;-66
2022/04/27 02:41:43;;;;;;;19.33;15.50;;;9.60;99.90;;;;;;4968765;28;20241;-67
2022/04/27 02:44:10;;;;;;;19.40;15.20;;;9.60;99.90;;;;;;4957119;28;20664;-68
2022/04/27 02:46:38;;;;;;;19.03;15.07;;;9.50;99.90;;;;;;4956874;28;20209;-66
2022/04/27 02:51:52;;;;;;;19.83;15.83;;;9.50;99.90;;;;;;4973464;28;20203;-67
2022/04/27 02:54:20;;;;;;;22.17;16.57;;;9.50;99.90;;;;;;4958592;28;20216;-66
2022/04/27 02:56:47;;;;;;;20.10;15.83;;;9.40;99.90;;;;;;4956991;28;20205;-67
2022/04/27 02:59:15;;;;;;;21.70;16.17;;;9.40;99.90;;;;;;4955680;28;20296;-66
2022/04/27 03:01:43;;;;;;;21.43;15.20;;;9.40;99.90;;;;;;4957066;28;20249;-66
2022/04/27 03:04:11;;;;;;;22.03;15.77;;;9.30;99.90;;;;;;4956902;28;20216;-66
2022/04/27 03:06:38;;;;;;;21.63;15.70;;;9.30;99.90;;;;;;4969454;28;20827;-67
2022/04/27 03:09:05;;;;;;;19.83;15.27;;;9.20;99.90;;;;;;4969510;28;20741;-67
2022/04/27 03:11:32;;;;;;;20.40;15.77;;;9.30;99.90;;;;;;4963695;28;20295;-67
2022/04/27 03:13:58;;;;;;;21.47;15.87;;;9.30;99.90;;;;;;4962837;28;20300;-66
2022/04/27 03:16:25;;;;;;;22.70;15.97;;;9.30;99.90;;;;;;4967123;28;20291;-65
2022/04/27 03:18:53;;;;;;;22.10;16.37;;;9.20;99.90;;;;;;4963082;28;20215;-66
2022/04/27 03:21:20;;;;;;;25.37;16.97;;;9.20;99.90;;;;;;4964499;28;20316;-66
2022/04/27 03:23:47;;;;;;;21.43;16.57;;;9.30;99.90;;;;;;4956560;28;20224;-66
2022/04/27 03:26:14;;;;;;;23.13;16.60;;;9.30;99.90;;;;;;4955858;28;20213;-68
2022/04/27 03:28:41;;;;;;;22.43;15.13;;;9.30;99.90;;;;;;4955924;28;20299;-68
2022/04/27 03:31:08;;;;;;;21.33;16.53;;;9.30;99.90;;;;;;4956400;28;20213;-67
2022/04/27 03:33:35;;;;;;;23.60;16.77;;;9.40;99.90;;;;;;4956077;28;20272;-67
2022/04/27 03:36:03;;;;;;;23.63;16.67;;;9.40;99.90;;;;;;4955244;28;20292;-67
2022/04/27 03:38:30;;;;;;;24.30;16.93;;;9.40;99.90;;;;;;4971821;28;20247;-66
2022/04/27 03:40:57;;;;;;;22.13;16.50;;;9.40;99.90;;;;;;4963967;28;20237;-67
2022/04/27 03:43:24;;;;;;;22.07;16.27;;;9.50;99.90;;;;;;4955962;28;20215;-67
2022/04/27 03:45:51;;;;;;;23.30;15.47;;;9.50;99.90;;;;;;4956189;28;20221;-67
2022/04/27 03:48:18;;;;;;;20.37;14.27;;;9.50;99.90;;;;;;4962863;28;20300;-67
2022/04/27 03:50:45;;;;;;;19.63;15.37;;;9.40;99.90;;;;;;4955978;28;20312;-67
2022/04/27 03:53:13;;;;;;;20.70;14.87;;;9.50;99.90;;;;;;4956279;28;20662;-67
2022/04/27 03:55:40;;;;;;;18.97;14.13;;;9.50;99.90;;;;;;4962142;28;20233;-67
2022/04/27 03:58:07;;;;;;;18.87;14.23;;;9.50;99.90;;;;;;4966096;28;20285;-67
2022/04/27 04:00:34;;;;;;;21.17;14.80;;;9.50;99.90;;;;;;4960660;28;20734;-67
2022/04/27 04:03:02;;;;;;;21.20;13.87;;;9.50;99.90;;;;;;4964079;28;20209;-67
2022/04/27 04:05:29;;;;;;;19.10;13.37;;;9.50;99.90;;;;;;4958229;28;20249;-67
2022/04/27 04:07:56;;;;;;;19.23;13.77;;;9.50;99.90;;;;;;4967218;28;20213;-66
2022/04/27 04:10:25;;;;;;;19.90;14.53;;;9.50;99.90;;;;;;4962962;28;20694;-67
2022/04/27 04:12:52;;;;;;;20.93;14.30;;;9.60;99.90;;;;;;4957855;28;20233;-66
2022/04/27 04:15:19;;;;;;;17.33;13.27;;;9.50;99.90;;;;;;4957158;28;20312;-65
2022/04/27 04:17:46;;;;;;;22.47;14.43;;;9.40;99.90;;;;;;4961370;28;20292;-66
2022/04/27 04:20:14;;;;;;;18.43;12.57;;;9.50;99.90;;;;;;4955068;28;20669;-67
2022/04/27 04:22:41;;;;;;;19.87;13.57;;;9.60;99.90;;;;;;4966652;28;20236;-67
2022/04/27 04:30:40;;;;;;;17.67;12.93;;;9.60;99.90;;;;;;4964618;28;20224;-66
2022/04/27 04:33:06;;;;;;;15.40;11.40;;;9.60;99.90;;;;;;4958020;28;20251;-66
2022/04/27 04:35:34;;;;;;;17.23;13.17;;;9.60;99.90;;;;;;4955913;28;20296;-66
2022/04/27 04:38:01;;;;;;;15.80;12.60;;;9.60;99.90;;;;;;4954769;28;20213;-66
2022/04/27 04:40:28;;;;;;;18.23;12.47;;;9.70;99.90;;;;;;4955284;28;20238;-66
2022/04/27 04:42:56;;;;;;;17.30;12.03;;;9.80;99.90;;;;;;4955673;28;20213;-67
2022/04/27 04:45:24;;;;;;;17.13;12.37;;;9.70;99.90;;;;;;4955388;28;20289;-68
2022/04/27 04:47:50;;;;;;;15.40;11.13;;;9.80;99.90;;;;;;4961293;28;20216;-66
2022/04/27 04:50:18;;;;;;;16.87;11.23;;;9.80;99.90;;;;;;4956200;28;20234;-66
2022/04/27 04:52:46;;;;;;;15.60;12.17;;;9.90;99.90;;;;;;4954635;28;20233;-66
2022/04/27 04:55:13;;;;;;;17.23;11.60;;;9.90;99.90;;;;;;4954460;28;20213;-67
2022/04/27 04:57:40;;;;;;;15.97;12.00;;;9.90;99.90;;;;;;4963529;28;20209;-67
2022/04/27 05:00:10;;;;;;;16.03;12.23;;;10.00;99.90;;;;;;4954306;28;20237;-66
2022/04/27 05:02:37;;;;;;;21.40;11.90;;;10.00;99.90;;;;;;4967162;28;20226;-67
2022/04/27 05:05:05;;;;;;;18.43;12.30;;;10.00;99.90;;;;;;4956022;28;20576;-68
2022/04/27 05:07:32;;;;;;;15.03;11.50;;;10.10;99.90;;;;;;4962102;28;20589;-66
2022/04/27 05:09:59;;;;;;;15.83;11.70;;;10.10;99.90;;;;;;4955128;28;20265;-67
2022/04/27 05:12:26;;;;;;;15.87;11.57;;;10.00;99.90;;;;;;4960360;28;20240;-66
2022/04/27 05:14:54;;;;;;;19.80;12.53;;;10.10;99.90;;;;;;4955390;28;20213;-67
2022/04/27 05:17:23;;;;;;;15.00;11.57;;;10.10;99.90;;;;;;4957583;28;20694;-68
2022/04/27 05:19:52;;;;;;;17.57;11.57;;;10.20;99.90;;;;;;4958400;28;20213;-67
2022/04/27 05:22:19;;;;;;;14.67;11.03;;;10.20;99.90;;;;;;4967640;28;20228;-68
2022/04/27 05:24:46;;;;;;;15.00;10.57;;;10.30;99.90;;;;;;4960067;28;20244;-67
2022/04/27 05:27:13;;;;;;;15.60;10.60;;;10.40;99.90;;;;;;4969538;28;20209;-68
2022/04/27 05:32:27;;;;;;;16.07;10.70;;;10.50;99.90;;;;;;4958687;28;20212;-67
2022/04/27 05:34:54;;;;;;;15.07;10.67;;;10.50;99.90;;;;;;4962096;28;20570;-66
2022/04/27 05:37:21;;;;;;;16.67;11.67;;;10.50;99.90;;;;;;4971071;28;20257;-67
2022/04/27 05:39:48;;;;;;;14.37;10.77;;;10.60;99.90;;;;;;4963881;28;20213;-67
2022/04/27 05:42:15;;;;;;;12.70;10.07;;;10.70;99.90;;;;;;4957833;28;20288;-67
2022/04/27 05:44:42;;;;;;;13.13;10.47;;;10.70;99.90;;;;;;4957804;28;20309;-69
2022/04/27 05:47:09;;;;;;;17.50;10.80;;;10.70;99.90;;;;;;4970571;28;20652;-67
2022/04/27 05:49:37;;;;;;;12.93;10.00;;;10.80;99.90;;;;;;4971970;28;20228;-68
2022/04/27 05:52:04;;;;;;;10.67;8.77;;;10.90;99.90;;;;;;4959659;28;20229;-69
2022/04/27 05:54:31;;;;;;;15.67;9.60;;;10.80;99.90;;;;;;4960894;28;20296;-68
2022/04/27 05:56:58;;;;;;;12.87;10.00;;;11.00;99.90;;;;;;4958641;28;20205;-67
2022/04/27 05:59:25;;;;;;;16.80;8.40;;;11.00;99.90;;;;;;4963118;28;20207;-66
2022/04/27 06:01:52;;;;;;;14.27;8.90;;;11.10;99.90;;;;;;4962297;28;20721;-66
2022/04/27 06:04:19;;;;;;;13.30;8.87;;;11.10;99.90;;;;;;4957724;28;20750;-68
2022/04/27 06:06:47;;;;;;;11.73;8.77;;;11.00;99.90;;;;;;4966981;28;20260;-68
2022/04/27 06:09:14;;;;;;;13.40;8.30;;;11.10;99.90;;;;;;4972673;28;20665;-68
2022/04/27 06:11:41;;;;;;;15.57;9.20;;;11.10;99.90;;;;;;4968497;28;20291;-69
2022/04/27 06:14:08;;;;;;;14.80;9.37;;;11.10;99.90;;;;;;4969560;28;20208;-68
2022/04/27 06:16:35;;;;;;;16.00;10.40;;;11.20;99.90;;;;;;4962676;28;20296;-68
2022/04/27 06:19:02;;;;;;;12.73;9.90;;;11.30;99.90;;;;;;4959451;28;20316;-69
2022/04/27 06:21:31;;;;;;;13.67;9.20;;;11.40;99.90;;;;;;4959580;28;20793;-68
2022/04/27 06:24:00;;;;;;;12.40;9.30;;;11.50;99.90;;;;;;4968299;28;20208;-71
2022/04/27 06:26:27;;;;;;;12.17;8.47;;;11.50;99.90;;;;;;4977702;28;20280;-69
2022/04/27 06:28:54;;;;;;;12.67;8.93;;;11.70;99.90;;;;;;4961967;28;20299;-69
2022/04/27 06:31:21;;;;;;;13.97;8.47;;;11.70;99.90;;;;;;4976968;28;20276;-70
2022/04/27 06:33:48;;;;;;;12.13;7.00;;;11.80;99.90;;;;;;4965657;28;20209;-69
2022/04/27 06:36:15;;;;;;;12.23;7.77;;;11.80;99.90;;;;;;4961354;28;20277;-67
2022/04/27 06:38:42;;;;;;;11.17;7.53;;;11.90;99.90;;;;;;4961898;28;20255;-69
2022/04/27 06:41:10;;;;;;;12.57;7.73;;;11.90;99.90;;;;;;4963927;28;20250;-69
2022/04/27 06:43:37;;;;;;;10.53;7.67;;;12.00;99.90;;;;;;4970917;28;20204;-70
2022/04/27 06:46:04;;;;;;;9.70;7.07;;;12.00;99.90;;;;;;4973423;28;20626;-69
2022/04/27 06:48:32;;;;;;;10.47;7.27;;;12.10;99.90;;;;;;4970406;28;20209;-69
2022/04/27 06:50:59;;;;;;;8.00;6.40;;;12.30;99.90;;;;;;4976683;28;20311;-68
2022/04/27 06:53:26;;;;;;;8.80;6.80;;;12.30;99.90;;;;;;4972507;28;20677;-69
2022/04/27 06:55:53;;;;;;;11.47;6.60;;;12.40;99.90;;;;;;4975626;28;20263;-69
2022/04/27 06:58:21;;;;;;;9.73;6.77;;;12.50;99.90;;;;;;4970779;28;20240;-69
2022/04/27 07:00:48;;;;;;;8.77;6.67;;;12.60;99.90;;;;;;4965478;28;20621;-70
2022/04/27 07:03:15;;;;;;;7.87;6.10;;;12.70;99.90;;;;;;4960968;28;20301;-71
2022/04/27 07:05:42;;;;;;;9.80;6.40;;;12.80;99.90;;;;;;4971292;28;20685;-70
2022/04/27 07:08:10;;;;;;;9.30;5.97;;;12.90;99.90;;;;;;4957269;28;20663;-71
2022/04/27 07:10:37;;;;;;;10.43;6.60;;;12.90;99.90;;;;;;4957256;28;20225;-68
2022/04/27 07:13:05;;;;;;;8.47;5.83;;;12.90;99.90;;;;;;4956101;28;20226;-68
2022/04/27 07:15:34;;;;;;;9.97;5.70;;;13.00;99.90;;;;;;4956922;28;20216;-69
2022/04/27 07:18:00;;;;;;;7.20;5.70;;;13.00;99.90;;;;;;4967107;28;20212;-66
2022/04/27 07:20:27;;;;;;;9.40;5.80;;;13.10;99.90;;;;;;4968875;28;20288;-68
2022/04/27 07:22:54;;;;;;;12.90;5.60;;;13.10;99.90;;;;;;4956717;28;20690;-71
2022/04/27 07:25:21;;;;;;;8.67;5.93;;;13.30;99.90;;;;;;4956865;28;20260;-69
2022/04/27 07:27:48;;;;;;;7.20;5.83;;;13.40;99.90;;;;;;4970381;28;20209;-68
2022/04/27 07:30:15;;;;;;;6.47;5.20;;;13.50;99.90;;;;;;4959982;28;20228;-67
2022/04/27 07:32:44;;;;;;;9.80;6.07;;;13.60;99.90;;;;;;4963917;28;20303;-69
2022/04/27 07:35:11;;;;;;;8.53;5.77;;;13.70;99.90;;;;;;4961382;28;20209;-68
2022/04/27 07:37:38;;;;;;;8.10;4.87;;;14.00;99.90;;;;;;4960654;28;20602;-69
2022/04/27 07:40:10;;;;;;;8.40;5.40;;;14.20;99.30;;;;;;4974192;28;20264;-68
2022/04/27 07:42:39;;;;;;;6.60;4.77;;;14.30;98.40;;;;;;4965783;28;20216;-70
2022/04/27 07:45:07;;;;;;;7.83;5.20;;;14.40;97.50;;;;;;4961072;28;20213;-70
2022/04/27 07:47:44;;;;;;;7.30;5.33;;;14.50;96.90;;;;;;4971075;28;20267;-69
2022/04/27 07:50:12;;;;;;;7.23;5.30;;;14.60;96.80;;;;;;4976142;28;20223;-70
2022/04/27 07:52:39;;;;;;;6.03;4.57;;;14.80;96.60;;;;;;4970454;28;20509;-69
2022/04/27 07:55:08;;;;;;;5.90;4.73;;;14.90;95.70;;;;;;4941269;28;20216;-70
2022/04/27 07:57:36;;;;;;;6.20;4.50;;;15.00;94.90;;;;;;4965835;28;20214;-69
2022/04/27 08:00:06;;;;;;;7.53;5.20;;;15.10;94.20;;;;;;4971660;28;20251;-70
2022/04/27 08:02:33;;;;;;;6.30;4.97;;;15.20;94.10;;;;;;4959979;28;20201;-70
2022/04/27 08:05:02;;;;;;;6.97;4.87;;;15.40;94.10;;;;;;4956776;28;20244;-65
2022/04/27 08:07:36;;;;;;;5.17;4.27;;;15.60;93.70;;;;;;4964555;28;20205;-68
2022/04/27 08:10:08;;;;;;;6.17;4.50;;;15.80;92.90;;;;;;4956359;28;20221;-68
2022/04/27 08:12:35;;;;;;;5.87;4.70;;;16.00;92.20;;;;;;4956792;28;20217;-69
2022/04/27 08:15:02;;;;;;;7.87;5.07;;;16.20;91.40;;;;;;4961892;28;20220;-70
2022/04/27 08:17:29;;;;;;;6.07;4.70;;;16.30;90.60;;;;;;4957541;28;20209;-70
2022/04/27 08:21:13;;;;;;;6.45;4.95;;;16.40;90.30;;;;;;4962050;28;20235;-70
2022/04/27 08:22:44;;;;;;;6.22;4.55;;;16.50;90.10;;;;;;4973321;28;20731;-69
2022/04/27 08:25:11;;;;;;;6.03;4.67;;;16.60;89.00;;;;;;4960042;28;20202;-69
2022/04/27 08:27:39;;;;;;;5.75;3.97;;;16.80;88.10;;;;;;4974970;28;20244;-70
2022/04/27 08:30:07;;;;;;;6.68;3.90;;;16.90;85.50;;;;;;4974655;28;20238;-69
2022/04/27 08:32:34;;;;;;;8.10;5.05;;;16.90;83.40;;;;;;4958421;28;20281;-71
2022/04/27 08:35:01;;;;;;;7.65;4.55;;;16.90;83.00;;;;;;4966686;28;20236;-70
2022/04/27 08:37:28;;;;;;;6.47;4.90;;;17.10;82.80;;;;;;4965954;28;20276;-68
2022/04/27 08:39:58;;;;;;;5.50;4.57;;;17.20;81.80;;;;;;4958201;28;20260;-69
2022/04/27 08:42:25;;;;;;;5.33;3.57;;;17.40;81.10;;;;;;4963474;28;20650;-71
2022/04/27 08:44:52;;;;;;;4.70;3.30;;;17.50;81.00;;;;;;4960253;28;20361;-69
2022/04/27 08:47:19;;;;;;;4.90;3.30;;;17.70;79.20;;;;;;4957883;28;20261;-69
2022/04/27 08:49:46;;;;;;;4.18;3.22;;;17.90;77.20;;;;;;4954884;28;20237;-69
2022/04/27 08:52:13;;;;;;;5.30;3.58;;;17.90;75.40;;;;;;4967280;28;20240;-68
2022/04/27 08:54:41;;;;;;;3.45;3.00;;;18.00;74.40;;;;;;4947914;28;20272;-68
2022/04/27 08:57:09;;;;;;;6.68;3.60;;;18.20;73.00;;;;;;4957073;28;20264;-70
2022/04/27 08:59:37;;;;;;;7.57;3.92;;;18.20;71.60;;;;;;4958925;28;20559;-69
2022/04/27 09:02:26;;;;;;;4.47;3.08;;;18.40;71.70;;;;;;4972315;28;20280;-70
2022/04/27 09:05:13;;;;;;;3.35;2.72;;;18.70;69.70;;;;;;4973296;28;20223;-69
2022/04/27 09:07:40;;;;;;;3.40;2.60;;;18.90;68.00;;;;;;4964686;28;20288;-67
2022/04/27 09:10:09;;;;;;;5.90;2.78;;;19.20;66.30;;;;;;4967671;28;21431;-68
2022/04/27 09:12:45;;;;;;;3.55;2.83;;;19.50;63.90;;;;;;4959967;28;20571;-71
2022/04/27 09:15:14;;;;;;;4.50;2.60;;;19.60;62.30;;;;;;4964346;28;20204;-72
2022/04/27 09:23:22;;;;;;;3.67;2.38;;;19.20;58.40;;;;;;4961018;28;20208;-64
2022/04/27 09:25:50;;;;;;;3.25;2.50;;;18.90;60.10;;;;;;4969952;28;20204;-71
2022/04/27 09:28:19;;;;;;;2.90;2.60;;;18.90;60.00;;;;;;4969532;28;20681;-68
2022/04/27 09:30:49;;;;;;;6.03;2.90;;;19.00;60.70;;;;;;4969625;28;20319;-70
2022/04/27 09:33:30;;;;;;;3.45;3.15;;;19.20;60.40;;;;;;4960803;28;20213;-67
2022/04/27 09:35:57;;;;;;;3.67;3.10;;;19.20;59.50;;;;;;4969113;28;20275;-67
2022/04/27 09:38:24;;;;;;;4.22;3.10;;;19.20;60.00;;;;;;4960566;28;20295;-68
2022/04/27 09:40:54;;;;;;;3.78;2.53;;;19.40;59.60;;;;;;4961057;28;20727;-67
2022/04/27 09:43:42;;;;;;;3.40;1.95;;;19.50;59.00;;;;;;4960481;28;20288;-69
2022/04/27 09:46:16;;;;;;;4.30;2.92;;;19.70;58.30;;;;;;4969713;28;20634;-68
2022/04/27 09:48:46;;;;;;;3.35;2.25;;;19.90;57.50;;;;;;4963787;28;20248;-68
2022/04/27 09:51:14;;;;;;;3.03;2.30;;;20.10;56.00;;;;;;4965835;28;20259;-67
2022/04/27 09:53:42;;;;;;;4.07;2.20;;;20.40;56.30;;;;;;4971447;28;20295;-66
2022/04/27 09:56:13;;;;;;;2.15;1.95;;;20.80;55.40;;;;;;4972756;28;20244;-67
2022/04/27 09:58:47;;;;;;;2.40;1.98;;;21.20;54.30;;;;;;4976659;28;20204;-69
2022/04/27 10:01:17;;;;;;;3.30;2.22;;;21.50;53.10;;;;;;4960679;28;20296;-68
2022/04/27 10:03:48;;;;;;;3.08;2.80;;;21.80;52.70;;;;;;4973246;28;20237;-64
2022/04/27 10:06:15;;;;;;;3.65;2.28;;;21.90;51.90;;;;;;4966490;28;20208;-66
2022/04/27 10:08:43;;;;;;;4.00;2.03;;;21.80;51.90;;;;;;4955809;28;20213;-67
2022/04/27 10:11:12;;;;;;;2.65;2.35;;;21.40;51.10;;;;;;4965852;28;20225;-66
2022/04/27 10:13:40;;;;;;;2.22;2.00;;;21.10;51.50;;;;;;4960146;28;20237;-67
2022/04/27 10:16:09;;;;;;;2.30;2.03;;;20.80;51.30;;;;;;4958047;28;20232;-67
2022/04/27 10:18:36;;;;;;;2.75;1.77;;;20.60;51.90;;;;;;4958385;28;20237;-67
2022/04/27 10:21:05;;;;;;;3.17;2.17;;;20.40;51.70;;;;;;4960918;28;20315;-70
2022/04/27 10:23:32;;;;;;;3.47;2.10;;;20.20;51.40;;;;;;4966201;28;20208;-70
2022/04/27 10:26:14;;;;;;;2.25;2.05;;;19.90;51.00;;;;;;4962610;28;20216;-69
2022/04/27 10:28:45;;;;;;;3.08;2.03;;;19.80;51.30;;;;;;4968837;28;20207;-69
2022/04/27 10:31:13;;;;;;;2.05;1.80;;;19.80;51.70;;;;;;4964015;28;20271;-71
2022/04/27 10:33:50;;;;;;;3.35;1.88;;;19.80;51.80;;;;;;4967933;28;20209;-69
2022/04/27 10:36:39;;;;;;;3.65;1.92;;;19.90;51.70;;;;;;4971935;28;20220;-70
2022/04/27 10:39:28;;;;;;;2.80;1.77;;;20.00;51.80;;;;;;4964359;28;20288;-69
2022/04/27 10:42:17;;;;;;;3.05;1.90;;;20.10;51.50;;;;;;4952871;28;20235;-68
2022/04/27 10:45:07;;;;;;;3.28;1.85;;;20.10;50.80;;;;;;4970597;28;20280;-68
2022/04/27 10:47:37;;;;;;;2.53;1.77;;;20.10;50.60;;;;;;4957733;28;20212;-69
2022/04/27 10:50:35;;;;;;;2.00;1.48;;;20.00;50.30;;;;;;4972419;28;20295;-67
2022/04/27 10:53:22;;;;;;;3.55;2.10;;;20.00;50.30;;;;;;4960626;28;20253;-66
2022/04/27 10:55:54;;;;;;;2.13;1.88;;;20.00;50.30;;;;;;4965386;28;20217;-69
2022/04/27 10:58:33;;;;;;;2.15;1.95;;;20.10;50.40;;;;;;4956576;28;20269;-69
2022/04/27 11:01:31;;;;;;;3.03;2.10;;;20.10;50.40;;;;;;4955312;28;20312;-68
2022/04/27 11:04:12;;;;;;;3.75;1.73;;;20.30;50.90;;;;;;4960193;28;20225;-68
2022/04/27 11:07:23;;;;;;;3.00;1.52;;;20.60;50.90;;;;;;4965531;28;20201;-70
2022/04/27 11:10:09;;;;;;;1.98;1.60;;;20.70;49.40;;;;;;4949336;28;20311;-72
2022/04/27 11:12:36;;;;;;;1.77;1.65;;;21.00;48.90;;;;;;4961759;28;20298;-68
2022/04/27 11:15:04;;;;;;;3.28;1.92;;;21.30;49.20;;;;;;4976018;28;20217;-69
2022/04/27 11:17:33;;;;;;;1.63;1.48;;;21.40;49.00;;;;;;4971279;28;20208;-69
2022/04/27 11:20:03;;;;;;;4.20;2.30;;;21.40;48.90;;;;;;4975047;28;20209;-69
2022/04/27 11:22:38;;;;;;;2.80;2.05;;;21.40;48.40;;;;;;4964542;28;20263;-71
2022/04/27 11:25:07;;;;;;;3.08;1.55;;;21.40;48.30;;;;;;4967814;28;20197;-69
2022/04/27 11:27:36;;;;;;;2.55;1.92;;;21.20;47.60;;;;;;4967113;28;20642;-69
2022/04/27 11:30:04;;;;;;;3.83;1.88;;;21.20;48.00;;;;;;4968172;28;20224;-70
2022/04/27 11:32:31;;;;;;;3.88;1.67;;;21.20;48.00;;;;;;4967693;28;20224;-68
2022/04/27 11:34:58;;;;;;;3.88;2.38;;;21.30;48.10;;;;;;4961673;28;20205;-69
2022/04/27 11:37:26;;;;;;;2.30;1.50;;;21.40;47.90;;;;;;4973201;28;20674;-68
2022/04/27 11:39:54;;;;;;;2.25;2.05;;;21.30;47.70;;;;;;4962457;28;20220;-68
2022/04/27 11:42:21;;;;;;;6.63;2.55;;;21.50;48.10;;;;;;4969412;28;20247;-70
2022/04/27 11:44:52;;;;;;;2.13;1.60;;;21.60;47.80;;;;;;4971924;28;20662;-68
2022/04/27 11:47:28;;;;;;;2.63;1.60;;;21.80;47.40;;;;;;4971088;28;20220;-68
2022/04/27 11:49:56;;;;;;;3.70;1.77;;;21.80;45.60;;;;;;4957600;28;20213;-68
2022/04/27 11:52:23;;;;;;;2.00;1.80;;;21.60;45.40;;;;;;4967227;28;20264;-68
2022/04/27 11:54:52;;;;;;;5.57;1.70;;;21.30;46.40;;;;;;4963801;28;20223;-68
2022/04/27 11:57:24;;;;;;;1.95;1.30;;;21.10;45.80;;;;;;4961340;28;20583;-68
2022/04/27 11:59:52;;;;;;;7.68;1.83;;;20.70;46.10;;;;;;4967588;28;20299;-68
2022/04/27 12:02:24;;;;;;;1.73;1.55;;;20.50;46.80;;;;;;4962583;28;20219;-68
2022/04/27 12:04:52;;;;;;;5.25;1.83;;;20.40;48.00;;;;;;4963953;28;20208;-68
2022/04/27 12:07:21;;;;;;;3.85;1.63;;;20.30;49.10;;;;;;4966382;28;20224;-67
2022/04/27 12:10:00;;;;;;;1.83;1.40;;;20.30;49.10;;;;;;4972640;28;20612;-67
2022/04/27 12:12:28;;;;;;;1.88;1.52;;;20.30;49.00;;;;;;4967529;28;20758;-68
2022/04/27 12:14:56;;;;;;;2.80;1.83;;;20.30;49.20;;;;;;4968824;28;20214;-67
2022/04/27 12:17:57;;;;;;;1.23;1.13;;;20.20;48.10;;;;;;4959552;28;20261;-68
2022/04/27 12:20:36;;;;;;;3.80;1.60;;;20.10;47.80;;;;;;4889804;29;20601;-68
2022/04/27 12:23:06;;;;;;;3.38;1.67;;;20.10;47.80;;;;;;4882437;29;20195;-67
2022/04/27 12:25:43;;;;;;;2.58;1.50;;;20.00;47.40;;;;;;4922144;28;20602;-68
2022/04/27 12:28:13;;;;;;;2.05;1.50;;;19.80;47.50;;;;;;4958263;28;20203;-67
2022/04/27 12:30:44;;;;;;;2.58;1.38;;;19.40;47.20;;;;;;4964747;28;20211;-67
2022/04/27 12:33:12;;;;;;;2.15;1.50;;;19.20;47.50;;;;;;4966350;28;20311;-67
2022/04/27 12:38:27;;;;;;;4.78;2.15;;;18.90;48.30;;;;;;4963747;28;20200;-67
2022/04/27 12:40:55;;;;;;;2.80;1.77;;;18.80;48.40;;;;;;4959978;28;20261;-67
2022/04/27 12:43:23;;;;;;;2.17;1.58;;;18.60;48.30;;;;;;4962549;28;20240;-67
2022/04/27 12:46:07;;;;;;;3.30;1.80;;;18.40;48.50;;;;;;4968881;28;20242;-67
2022/04/27 12:48:35;;;;;;;1.40;1.30;;;18.30;49.00;;;;;;4972061;28;20298;-67
2022/04/27 12:51:07;;;;;;;1.70;1.60;;;18.20;49.40;;;;;;4970703;28;20307;-67
2022/04/27 12:53:34;;;;;;;2.42;1.52;;;18.20;49.80;;;;;;4969773;28;20224;-66
2022/04/27 12:56:08;;;;;;;2.08;1.42;;;18.20;49.60;;;;;;4963470;28;20241;-67
2022/04/27 12:58:35;;;;;;;2.70;1.73;;;18.20;49.60;;;;;;4967033;28;20247;-68
2022/04/27 13:01:02;;;;;;;1.80;1.70;;;18.20;49.80;;;;;;4972891;28;20288;-67
2022/04/27 13:03:29;;;;;;;1.85;1.65;;;18.10;50.30;;;;;;4968474;28;20639;-68
2022/04/27 13:05:57;;;;;;;1.77;1.55;;;18.10;50.30;;;;;;4973724;28;20209;-67
2022/04/27 13:08:23;;;;;;;2.38;1.25;;;18.20;50.50;;;;;;4966687;28;20566;-67
2022/04/27 13:13:36;;;;;;;1.33;1.23;;;18.20;50.30;;;;;;4962322;28;20288;-68
2022/04/27 13:16:04;;;;;;;3.42;1.60;;;18.20;50.00;;;;;;4960059;28;20236;-67